Time;durP1;ratioP1;P1;durP2;ratioP2;P2;SDS_P1;SDS_P2;PMS_P1;PMS_P2;Temp;Humidity;BMP_temperature;BMP_pressure;BME280_temperature;BME280_humidity;BME280_pressure;Samples;Min_cycle;Max_cycle;Signal;HPM_P1;HPM_P2
2022/09/16 00:02:19;;;;;;;0.40;0.40;;;15.40;99.90;;;;;;4970277;28;20118;-72
2022/09/16 00:04:45;;;;;;;1.37;1.27;;;15.40;99.90;;;;;;4969861;28;20378;-71
2022/09/16 00:07:10;;;;;;;1.07;0.83;;;15.40;99.90;;;;;;4969930;28;20475;-73
2022/09/16 00:09:37;;;;;;;0.50;0.40;;;15.30;99.90;;;;;;4969820;28;20483;-72
2022/09/16 00:12:03;;;;;;;0.68;0.68;;;15.30;99.90;;;;;;4969898;28;20050;-72
2022/09/16 00:14:29;;;;;;;1.05;0.95;;;15.30;99.90;;;;;;4969794;28;20050;-72
2022/09/16 00:16:55;;;;;;;0.47;0.47;;;15.40;99.90;;;;;;4969922;28;20026;-71
2022/09/16 00:19:20;;;;;;;1.33;1.13;;;15.30;99.90;;;;;;4968199;28;20100;-72
2022/09/16 00:21:46;;;;;;;0.87;0.87;;;14.30;99.90;;;;;;4969703;28;20039;-71
2022/09/16 00:24:14;;;;;;;0.98;0.98;;;15.20;99.90;;;;;;4969602;28;20035;-72
2022/09/16 00:26:40;;;;;;;0.90;0.90;;;15.20;99.90;;;;;;4969567;28;20050;-71
2022/09/16 00:29:06;;;;;;;0.40;0.40;;;15.30;99.90;;;;;;4969444;28;20073;-71
2022/09/16 00:31:31;;;;;;;0.50;0.50;;;15.10;99.90;;;;;;4969400;28;20062;-71
2022/09/16 00:33:57;;;;;;;0.50;0.50;;;15.10;99.90;;;;;;4969271;28;20501;-71
2022/09/16 00:36:22;;;;;;;1.63;1.27;;;15.10;99.90;;;;;;4969401;28;20027;-71
2022/09/16 00:38:53;;;;;;;0.30;0.30;;;15.10;99.90;;;;;;4968350;28;20027;-73
2022/09/16 00:41:24;;;;;;;0.45;0.45;;;15.10;99.90;;;;;;4969338;28;20061;-73
2022/09/16 00:43:52;;;;;;;0.38;0.38;;;15.10;99.90;;;;;;4967577;28;20035;-72
2022/09/16 00:46:24;;;;;;;0.45;0.45;;;15.00;99.90;;;;;;4969144;28;20076;-72
2022/09/16 00:48:50;;;;;;;0.90;0.90;;;15.10;99.90;;;;;;4969159;28;20073;-71
2022/09/16 00:51:17;;;;;;;1.43;1.27;;;15.10;99.90;;;;;;4969139;28;20066;-72
2022/09/16 00:54:03;;;;;;;0.35;0.35;;;15.10;99.90;;;;;;4967643;28;20035;-72
2022/09/16 00:56:33;;;;;;;0.50;0.50;;;15.00;99.90;;;;;;4968995;28;20522;-72
2022/09/16 00:59:02;;;;;;;1.85;1.00;;;15.10;99.90;;;;;;4969227;28;20040;-72
2022/09/16 01:01:30;;;;;;;0.50;0.50;;;15.10;99.90;;;;;;4967915;28;20030;-72
2022/09/16 01:04:04;;;;;;;0.40;0.40;;;15.10;99.90;;;;;;4968991;28;20065;-72
2022/09/16 01:06:34;;;;;;;0.25;0.25;;;15.10;99.90;;;;;;4967513;28;20088;-73
2022/09/16 01:09:01;;;;;;;0.75;0.50;;;15.10;99.90;;;;;;4969137;28;20498;-71
2022/09/16 01:11:26;;;;;;;0.50;0.50;;;15.10;99.90;;;;;;4968694;28;20030;-71
2022/09/16 01:13:52;;;;;;;1.67;1.57;;;15.10;99.90;;;;;;4968866;28;20046;-71
2022/09/16 01:16:30;;;;;;;0.40;0.40;;;15.10;99.90;;;;;;4967442;28;20475;-73
2022/09/16 01:19:09;;;;;;;0.93;0.90;;;15.00;99.90;;;;;;4967333;28;20276;-71
2022/09/16 01:22:03;;;;;;;0.65;0.65;;;15.00;99.90;;;;;;4968854;28;20467;-72
2022/09/16 01:24:46;;;;;;;1.10;1.02;;;15.00;99.90;;;;;;4968708;28;20111;-72
2022/09/16 01:27:50;;;;;;;0.77;0.77;;;15.00;99.90;;;;;;4968598;28;20034;-72
2022/09/16 01:30:34;;;;;;;2.40;2.00;;;15.00;99.90;;;;;;4968459;28;20494;-72
2022/09/16 01:33:10;;;;;;;0.80;0.80;;;15.00;99.90;;;;;;4968562;28;20372;-71
2022/09/16 01:36:01;;;;;;;0.30;0.30;;;15.00;99.90;;;;;;4967237;28;20027;-71
2022/09/16 01:38:55;;;;;;;1.35;1.25;;;15.00;99.90;;;;;;4968588;28;20031;-71
2022/09/16 01:41:30;;;;;;;0.85;0.80;;;15.10;99.90;;;;;;4985492;28;20105;-71
2022/09/16 01:44:05;;;;;;;1.30;1.10;;;15.00;99.90;;;;;;4967019;28;20080;-73
2022/09/16 01:46:43;;;;;;;1.73;1.63;;;15.00;99.90;;;;;;4968625;28;20051;-71
2022/09/16 01:49:20;;;;;;;0.50;0.50;;;14.90;99.90;;;;;;4968577;28;20027;-72
2022/09/16 01:51:53;;;;;;;;;;;14.90;99.90;;;;;;4968666;28;20061;-71
2022/09/16 01:54:44;;;;;;;0.93;0.90;;;14.90;99.90;;;;;;4968533;28;19917;-71
2022/09/16 01:57:23;;;;;;;1.83;0.98;;;14.80;99.90;;;;;;4968318;28;20556;-72
2022/09/16 02:00:09;;;;;;;4.22;1.92;;;14.80;99.90;;;;;;4968394;28;20023;-72
2022/09/16 02:02:38;;;;;;;4.22;0.82;;;14.80;99.90;;;;;;4968736;28;20084;-72
2022/09/16 02:05:08;;;;;;;5.90;1.48;;;14.80;99.90;;;;;;4968414;28;20116;-72
2022/09/16 02:07:40;;;;;;;1.08;1.02;;;14.80;99.90;;;;;;4968749;28;20042;-72
2022/09/16 02:10:14;;;;;;;1.13;1.10;;;14.80;99.90;;;;;;4968372;28;20100;-72
2022/09/16 02:12:41;;;;;;;0.32;0.32;;;14.80;99.90;;;;;;4968617;28;20069;-71
2022/09/16 02:15:11;;;;;;;1.48;1.38;;;15.00;99.90;;;;;;4968058;28;20041;-72
2022/09/16 02:17:42;;;;;;;0.60;0.60;;;14.80;99.90;;;;;;4968353;28;20386;-72
2022/09/16 02:20:12;;;;;;;0.63;0.57;;;14.80;99.90;;;;;;4968158;28;20088;-72
2022/09/16 02:22:45;;;;;;;0.40;0.40;;;14.80;99.90;;;;;;4968308;28;20434;-72
2022/09/16 02:25:14;;;;;;;0.55;0.55;;;14.80;99.90;;;;;;4967895;28;20316;-73
2022/09/16 02:27:45;;;;;;;0.73;0.73;;;14.70;99.90;;;;;;4968303;28;20038;-73
2022/09/16 02:30:16;;;;;;;1.60;1.50;;;14.80;99.90;;;;;;4967863;28;20041;-72
2022/09/16 02:32:49;;;;;;;0.52;0.52;;;14.70;99.90;;;;;;4968277;28;20050;-72
2022/09/16 02:35:18;;;;;;;2.78;1.40;;;14.70;99.90;;;;;;4966483;28;20027;-72
2022/09/16 02:37:57;;;;;;;1.40;1.33;;;14.70;99.90;;;;;;4968084;28;20038;-72
2022/09/16 02:40:32;;;;;;;0.52;0.52;;;14.70;99.90;;;;;;4966376;28;20027;-72
2022/09/16 02:42:58;;;;;;;0.68;0.68;;;14.70;99.90;;;;;;4966328;28;20312;-72
2022/09/16 02:45:36;;;;;;;1.52;1.42;;;14.60;99.90;;;;;;4967705;28;20414;-72
2022/09/16 02:48:49;;;;;;;1.05;1.02;;;14.50;99.90;;;;;;4966878;28;20038;-72
2022/09/16 02:51:30;;;;;;;0.32;0.32;;;14.60;99.90;;;;;;4974621;28;20466;-71
2022/09/16 02:54:09;;;;;;;2.42;1.65;;;14.60;99.90;;;;;;4967805;28;20588;-71
2022/09/16 02:56:40;;;;;;;0.50;0.50;;;14.60;99.90;;;;;;4967736;28;20027;-72
2022/09/16 02:59:09;;;;;;;0.55;0.55;;;14.60;99.90;;;;;;4967596;28;20038;-72
2022/09/16 03:01:40;;;;;;;4.00;1.55;;;14.60;99.90;;;;;;4967650;28;20103;-71
2022/09/16 03:04:06;;;;;;;0.73;0.73;;;14.70;99.90;;;;;;4970869;28;20134;-72
2022/09/16 03:06:34;;;;;;;0.77;0.77;;;14.60;99.90;;;;;;4970799;28;20593;-72
2022/09/16 03:09:03;;;;;;;0.65;0.65;;;14.60;99.90;;;;;;4970755;28;20145;-73
2022/09/16 03:11:48;;;;;;;2.25;1.33;;;14.50;99.90;;;;;;4969231;28;20518;-72
2022/09/16 03:14:35;;;;;;;1.50;1.00;;;14.50;99.90;;;;;;4969476;28;20084;-74
2022/09/16 03:17:28;;;;;;;0.50;0.50;;;14.50;99.90;;;;;;4971001;28;20157;-72
2022/09/16 03:20:28;;;;;;;0.60;0.60;;;14.50;99.90;;;;;;4970719;28;20027;-72
2022/09/16 03:23:24;;;;;;;0.93;0.93;;;14.50;99.90;;;;;;4969411;28;20520;-72
2022/09/16 03:26:17;;;;;;;0.63;0.63;;;14.50;99.90;;;;;;4970826;28;20038;-72
2022/09/16 03:29:14;;;;;;;0.47;0.47;;;14.50;99.90;;;;;;4970819;28;20099;-72
2022/09/16 03:31:58;;;;;;;1.13;1.13;;;14.50;99.90;;;;;;4971030;28;20316;-72
2022/09/16 03:34:33;;;;;;;0.50;0.50;;;14.40;99.90;;;;;;4970475;28;20547;-72
2022/09/16 03:37:05;;;;;;;2.53;0.88;;;14.40;99.90;;;;;;4970292;28;20106;-73
2022/09/16 03:39:32;;;;;;;0.47;0.47;;;14.50;99.90;;;;;;4970327;28;20049;-72
2022/09/16 03:42:01;;;;;;;;;;;14.50;99.90;;;;;;4969363;28;20027;-72
2022/09/16 03:44:35;;;;;;;0.30;0.30;;;14.40;99.90;;;;;;4970164;28;20397;-72
2022/09/16 03:47:02;;;;;;;0.60;0.60;;;14.40;99.90;;;;;;4970507;28;20132;-72
2022/09/16 03:49:29;;;;;;;0.93;0.93;;;14.40;99.90;;;;;;4970663;28;20023;-72
2022/09/16 03:51:55;;;;;;;0.80;0.80;;;14.40;99.90;;;;;;4970473;28;20062;-71
2022/09/16 03:54:20;;;;;;;0.40;0.40;;;14.40;99.90;;;;;;4970158;28;20065;-72
2022/09/16 03:56:46;;;;;;;0.60;0.60;;;14.40;99.90;;;;;;4970326;28;20031;-71
2022/09/16 03:59:11;;;;;;;0.50;0.50;;;14.40;99.90;;;;;;4970230;28;20023;-72
2022/09/16 04:01:37;;;;;;;1.00;1.00;;;14.30;99.90;;;;;;4970393;28;20035;-72
2022/09/16 04:04:03;;;;;;;1.83;1.50;;;14.30;99.90;;;;;;4970268;28;20385;-72
2022/09/16 04:06:28;;;;;;;0.33;0.33;;;14.40;99.90;;;;;;4970149;28;20035;-72
2022/09/16 04:08:56;;;;;;;0.73;0.73;;;14.30;99.90;;;;;;4968749;28;20035;-72
2022/09/16 04:11:21;;;;;;;0.47;0.47;;;14.30;99.90;;;;;;4968543;28;20478;-72
2022/09/16 04:13:47;;;;;;;0.43;0.43;;;14.20;99.90;;;;;;4969984;28;20026;-73
2022/09/16 04:16:20;;;;;;;0.90;0.90;;;14.30;99.90;;;;;;4970028;28;20479;-73
2022/09/16 04:18:45;;;;;;;0.65;0.65;;;14.30;99.90;;;;;;4968551;28;20037;-72
2022/09/16 04:21:11;;;;;;;0.83;0.83;;;14.30;99.90;;;;;;4968341;28;20469;-72
2022/09/16 04:23:37;;;;;;;0.83;0.83;;;14.20;99.90;;;;;;4969996;28;20035;-73
2022/09/16 04:26:03;;;;;;;0.30;0.30;;;14.20;99.90;;;;;;4969739;28;20471;-74
2022/09/16 04:28:32;;;;;;;1.25;0.75;;;14.20;99.90;;;;;;4969779;28;20035;-73
2022/09/16 04:31:03;;;;;;;0.57;0.57;;;14.10;99.90;;;;;;4969379;28;20366;-72
2022/09/16 04:33:30;;;;;;;0.40;0.40;;;15.20;99.90;;;;;;4969495;28;20106;-73
2022/09/16 04:36:08;;;;;;;1.65;1.33;;;14.20;99.90;;;;;;4969570;28;20062;-72
2022/09/16 04:38:34;;;;;;;1.08;1.08;;;14.20;99.90;;;;;;4969653;28;20035;-71
2022/09/16 04:41:07;;;;;;;0.73;0.73;;;14.20;99.90;;;;;;4968144;28;20092;-72
2022/09/16 04:43:33;;;;;;;1.30;1.20;;;14.10;99.90;;;;;;4969640;28;20129;-73
2022/09/16 04:45:59;;;;;;;1.70;1.60;;;14.10;99.90;;;;;;4969572;28;20138;-72
2022/09/16 04:48:25;;;;;;;1.90;0.70;;;14.10;99.90;;;;;;4969650;28;20030;-71
2022/09/16 04:50:52;;;;;;;0.80;0.80;;;14.10;99.90;;;;;;4969388;28;20042;-72
2022/09/16 04:53:18;;;;;;;0.32;0.32;;;14.10;99.90;;;;;;4969153;28;20295;-71
2022/09/16 04:55:45;;;;;;;1.33;0.50;;;14.10;99.90;;;;;;4969254;28;20105;-72
2022/09/16 04:58:12;;;;;;;0.30;0.30;;;14.00;99.90;;;;;;4969207;28;20027;-72
2022/09/16 05:00:37;;;;;;;0.60;0.60;;;14.10;99.90;;;;;;4969172;28;20174;-72
2022/09/16 05:03:03;;;;;;;0.50;0.50;;;14.00;99.90;;;;;;4969428;28;20114;-72
2022/09/16 05:05:28;;;;;;;0.70;0.70;;;14.00;99.90;;;;;;4967759;28;20030;-72
2022/09/16 05:07:54;;;;;;;1.03;1.03;;;14.20;99.90;;;;;;4969549;28;20031;-72
2022/09/16 05:10:20;;;;;;;0.70;0.70;;;14.10;99.90;;;;;;4969239;28;20314;-72
2022/09/16 05:12:51;;;;;;;0.90;0.90;;;14.10;99.90;;;;;;4969275;28;20050;-71
2022/09/16 05:15:16;;;;;;;0.93;0.90;;;14.10;99.90;;;;;;4969091;28;20034;-72
2022/09/16 05:17:42;;;;;;;0.97;0.97;;;14.20;99.90;;;;;;4967751;28;20035;-74
2022/09/16 05:20:08;;;;;;;0.60;0.60;;;14.10;99.90;;;;;;4969482;28;20160;-72
2022/09/16 05:22:33;;;;;;;0.70;0.70;;;14.10;99.90;;;;;;4967757;28;20050;-73
2022/09/16 05:24:59;;;;;;;0.40;0.40;;;14.30;99.90;;;;;;4968252;28;20039;-73
2022/09/16 05:27:26;;;;;;;1.53;1.43;;;14.20;99.90;;;;;;4967643;28;20529;-72
2022/09/16 05:29:52;;;;;;;1.25;1.17;;;14.20;99.90;;;;;;4967599;28;20135;-72
2022/09/16 05:32:18;;;;;;;0.90;0.90;;;14.20;99.90;;;;;;4967311;28;20080;-72
2022/09/16 05:34:43;;;;;;;0.30;0.30;;;14.30;99.90;;;;;;4968865;28;20159;-71
2022/09/16 05:37:09;;;;;;;1.87;1.70;;;14.30;99.90;;;;;;4967524;28;20030;-72
2022/09/16 05:39:34;;;;;;;0.57;0.57;;;14.50;99.90;;;;;;4968681;28;20037;-72
2022/09/16 05:42:00;;;;;;;0.60;0.57;;;14.40;99.90;;;;;;4967287;28;20062;-72
2022/09/16 05:44:26;;;;;;;0.83;0.83;;;14.40;99.90;;;;;;4968369;28;20116;-72
2022/09/16 05:46:52;;;;;;;0.80;0.80;;;14.40;99.90;;;;;;4968850;28;20381;-73
2022/09/16 05:49:19;;;;;;;1.07;0.93;;;14.50;99.90;;;;;;4968304;28;20031;-73
2022/09/16 05:51:45;;;;;;;;;;;14.50;99.90;;;;;;4967317;28;20034;-73
2022/09/16 05:54:11;;;;;;;0.40;0.40;;;14.50;99.90;;;;;;4968361;28;19979;-72
2022/09/16 05:56:37;;;;;;;0.40;0.40;;;14.60;99.90;;;;;;4968433;28;20386;-72
2022/09/16 05:59:02;;;;;;;1.00;1.00;;;14.60;99.90;;;;;;4968395;28;20031;-73
2022/09/16 06:01:33;;;;;;;0.30;0.30;;;14.70;99.90;;;;;;4967066;28;20057;-73
2022/09/16 06:04:01;;;;;;;1.00;1.00;;;14.70;99.90;;;;;;4968128;28;20321;-73
2022/09/16 06:06:29;;;;;;;1.48;1.35;;;14.80;99.90;;;;;;4968044;28;20125;-73
2022/09/16 06:08:59;;;;;;;0.85;0.85;;;14.90;99.90;;;;;;4966914;28;20176;-73
2022/09/16 06:11:26;;;;;;;0.85;0.70;;;15.00;99.90;;;;;;4968070;28;20038;-73
2022/09/16 06:13:57;;;;;;;2.10;1.95;;;14.90;99.90;;;;;;4966574;28;20030;-72
2022/09/16 06:16:25;;;;;;;0.65;0.65;;;15.00;99.90;;;;;;4968257;28;20383;-72
2022/09/16 06:18:52;;;;;;;1.17;1.08;;;14.90;99.90;;;;;;4968058;28;20039;-72
2022/09/16 06:21:17;;;;;;;0.80;0.80;;;15.00;99.90;;;;;;4966525;28;20038;-72
2022/09/16 06:23:43;;;;;;;1.70;1.60;;;15.00;99.90;;;;;;4967900;28;20106;-72
2022/09/16 06:26:14;;;;;;;0.90;0.90;;;15.00;99.90;;;;;;4967889;28;20040;-72
2022/09/16 06:28:40;;;;;;;1.23;1.15;;;15.10;99.90;;;;;;4966418;28;20023;-72
2022/09/16 06:31:09;;;;;;;2.58;1.40;;;15.20;99.90;;;;;;4967521;28;20160;-74
2022/09/16 06:33:35;;;;;;;0.80;0.80;;;15.20;99.90;;;;;;4967603;28;20034;-74
2022/09/16 06:36:06;;;;;;;0.98;0.98;;;15.30;99.90;;;;;;4966979;28;20042;-73
2022/09/16 06:38:32;;;;;;;1.10;0.77;;;15.30;99.90;;;;;;4969782;28;20449;-73
2022/09/16 06:40:59;;;;;;;0.55;0.55;;;15.30;99.90;;;;;;4971189;28;20038;-72
2022/09/16 06:43:25;;;;;;;0.75;0.75;;;15.30;99.90;;;;;;4971020;28;20031;-72
2022/09/16 06:45:54;;;;;;;1.38;1.30;;;15.40;99.90;;;;;;4969551;28;20055;-72
2022/09/16 06:48:20;;;;;;;1.15;1.05;;;15.50;99.90;;;;;;4970688;28;20352;-72
2022/09/16 06:50:45;;;;;;;0.67;0.67;;;15.50;99.90;;;;;;4969681;28;20027;-71
2022/09/16 06:53:11;;;;;;;2.10;1.77;;;15.50;99.90;;;;;;4970900;28;20057;-74
2022/09/16 06:55:36;;;;;;;1.80;1.70;;;15.50;99.90;;;;;;4969609;28;20027;-72
2022/09/16 06:58:02;;;;;;;1.73;1.63;;;15.40;99.90;;;;;;4969261;28;20445;-73
2022/09/16 07:00:28;;;;;;;0.67;0.67;;;15.50;99.90;;;;;;4970685;28;20019;-73
2022/09/16 07:02:53;;;;;;;1.37;1.13;;;15.60;99.90;;;;;;4971026;28;20041;-72
2022/09/16 07:05:19;;;;;;;0.97;0.73;;;15.60;99.90;;;;;;4969276;28;20043;-71
2022/09/16 07:07:44;;;;;;;0.77;0.77;;;15.60;99.90;;;;;;4971042;28;20374;-74
2022/09/16 07:10:10;;;;;;;1.07;1.03;;;15.70;99.90;;;;;;4970501;28;20371;-73
2022/09/16 07:12:35;;;;;;;1.17;1.07;;;15.70;99.90;;;;;;4970384;28;20027;-73
2022/09/16 07:15:01;;;;;;;1.63;1.13;;;15.70;99.90;;;;;;4970679;28;20110;-72
2022/09/16 07:17:27;;;;;;;0.87;0.87;;;15.70;99.90;;;;;;4969118;28;20489;-73
2022/09/16 07:19:52;;;;;;;0.77;0.77;;;15.70;99.90;;;;;;4970441;28;20031;-72
2022/09/16 07:22:18;;;;;;;2.27;1.83;;;15.70;99.90;;;;;;4970448;28;20470;-72
2022/09/16 07:24:44;;;;;;;1.70;1.60;;;15.80;99.90;;;;;;4970184;28;20039;-72
2022/09/16 07:27:10;;;;;;;0.80;0.80;;;15.90;99.90;;;;;;4970629;28;20030;-73
2022/09/16 07:29:36;;;;;;;1.53;1.43;;;15.80;99.90;;;;;;4970293;28;20061;-73
2022/09/16 07:32:02;;;;;;;0.57;0.53;;;15.80;99.90;;;;;;4970282;28;20019;-72
2022/09/16 07:34:27;;;;;;;2.73;1.77;;;15.90;99.90;;;;;;4970027;28;20027;-72
2022/09/16 07:36:53;;;;;;;1.67;1.57;;;15.90;99.90;;;;;;4970090;28;20023;-73
2022/09/16 07:39:20;;;;;;;1.57;1.47;;;16.00;99.90;;;;;;4969906;28;20114;-71
2022/09/16 07:41:47;;;;;;;0.95;0.95;;;16.10;99.90;;;;;;4968262;28;20019;-73
2022/09/16 07:44:15;;;;;;;1.17;1.08;;;16.20;99.90;;;;;;4969669;28;20043;-72
2022/09/16 07:46:41;;;;;;;1.85;1.40;;;16.40;99.90;;;;;;4968409;28;20039;-72
2022/09/16 07:49:09;;;;;;;0.75;0.75;;;16.70;99.90;;;;;;4969087;28;20042;-74
2022/09/16 07:51:35;;;;;;;1.05;0.82;;;17.00;99.90;;;;;;4969798;28;20042;-73
2022/09/16 07:54:07;;;;;;;1.57;1.47;;;17.10;99.90;;;;;;4969859;28;20480;-73
2022/09/16 07:56:35;;;;;;;1.02;1.02;;;17.60;99.90;;;;;;4969767;28;20466;-72
2022/09/16 07:59:04;;;;;;;7.88;0.90;;;17.30;99.90;;;;;;4969880;28;20089;-73
2022/09/16 08:01:30;;;;;;;0.63;0.63;;;17.10;99.90;;;;;;4969935;28;20433;-73
2022/09/16 08:03:56;;;;;;;0.90;0.83;;;17.10;99.90;;;;;;4969695;28;20497;-73
2022/09/16 08:06:25;;;;;;;0.75;0.70;;;17.10;99.90;;;;;;4969549;28;20039;-73
2022/09/16 08:08:53;;;;;;;0.85;0.77;;;17.00;99.90;;;;;;4968407;28;20046;-72
2022/09/16 08:11:18;;;;;;;0.75;0.75;;;17.00;99.90;;;;;;4968457;28;20088;-73
2022/09/16 08:13:45;;;;;;;0.97;0.97;;;17.10;99.90;;;;;;4968629;28;20124;-73
2022/09/16 08:16:14;;;;;;;0.47;0.47;;;17.20;99.90;;;;;;4977846;28;20022;-74
2022/09/16 08:18:40;;;;;;;1.92;1.13;;;17.30;99.90;;;;;;4988685;28;20065;-74
2022/09/16 08:21:07;;;;;;;;;;;17.40;99.90;;;;;;4988895;28;20062;-73
2022/09/16 08:23:34;;;;;;;0.20;0.20;;;17.50;99.90;;;;;;4985152;28;20382;-73
2022/09/16 08:25:59;;;;;;;;;;;17.50;99.90;;;;;;4970062;28;20065;-71
2022/09/16 08:28:26;;;;;;;1.40;1.30;;;17.70;99.90;;;;;;4969025;28;19910;-72
2022/09/16 08:30:52;;;;;;;;;;;17.90;99.90;;;;;;4969358;28;20084;-73
2022/09/16 08:33:20;;;;;;;0.47;0.47;;;18.30;99.90;;;;;;4984494;28;19960;-72
2022/09/16 08:36:09;;;;;;;4.22;1.33;;;18.40;99.90;;;;;;5069085;28;20447;-72
2022/09/16 08:38:34;;;;;;;1.35;1.15;;;18.70;99.90;;;;;;5068945;28;20033;-72
2022/09/16 08:41:20;;;;;;;0.60;0.60;;;18.90;99.90;;;;;;5001067;28;20049;-72
2022/09/16 08:44:23;;;;;;;1.08;1.08;;;19.20;99.90;;;;;;5005839;28;20074;-73
2022/09/16 08:46:54;;;;;;;0.40;0.40;;;19.50;99.90;;;;;;4986788;28;20022;-73
2022/09/16 08:49:38;;;;;;;1.83;1.20;;;19.70;99.90;;;;;;4986755;28;20057;-73
2022/09/16 08:52:21;;;;;;;0.60;0.60;;;20.60;99.90;;;;;;4987286;28;20066;-73
2022/09/16 08:54:55;;;;;;;1.02;0.88;;;19.70;99.90;;;;;;4987519;28;20066;-73
2022/09/16 08:57:24;;;;;;;0.50;0.50;;;19.50;99.90;;;;;;4986266;28;20386;-72
2022/09/16 08:59:56;;;;;;;0.93;0.93;;;19.50;99.90;;;;;;4984943;28;20037;-73
2022/09/16 09:02:36;;;;;;;1.33;1.23;;;19.50;99.90;;;;;;4988537;28;20107;-74
2022/09/16 09:05:05;;;;;;;0.73;0.73;;;19.50;99.90;;;;;;4986884;28;20328;-72
2022/09/16 09:07:42;;;;;;;4.35;2.40;;;19.70;99.90;;;;;;4988307;28;20026;-72
2022/09/16 09:10:26;;;;;;;0.60;0.60;;;20.10;99.90;;;;;;4986644;28;20130;-73
2022/09/16 09:13:09;;;;;;;0.52;0.52;;;20.40;99.90;;;;;;4988549;28;20106;-73
2022/09/16 09:15:51;;;;;;;0.32;0.32;;;20.60;99.90;;;;;;4988272;28;20027;-73
2022/09/16 09:18:17;;;;;;;0.70;0.70;;;20.90;99.90;;;;;;4988193;28;20815;-73
2022/09/16 09:21:00;;;;;;;0.87;0.87;;;21.00;99.90;;;;;;4988155;28;20088;-73
2022/09/16 09:24:07;;;;;;;0.30;0.30;;;21.00;99.90;;;;;;4986997;28;20037;-73
2022/09/16 09:26:49;;;;;;;0.52;0.47;;;20.90;99.90;;;;;;4986804;28;20464;-73
2022/09/16 09:29:40;;;;;;;0.52;0.52;;;20.90;99.90;;;;;;4988179;28;20079;-72
2022/09/16 09:32:56;;;;;;;6.70;0.90;;;20.90;99.90;;;;;;4988138;28;20066;-73
2022/09/16 09:36:01;;;;;;;1.00;0.85;;;20.90;99.90;;;;;;5070541;28;20503;-72
2022/09/16 09:38:51;;;;;;;0.85;0.85;;;20.70;99.90;;;;;;4986529;28;20473;-73
2022/09/16 09:41:30;;;;;;;0.35;0.35;;;20.60;99.90;;;;;;4988674;28;20075;-73
2022/09/16 09:44:31;;;;;;;2.20;1.17;;;20.50;99.90;;;;;;4989264;28;20099;-65
2022/09/16 09:47:01;;;;;;;0.75;0.75;;;20.50;99.90;;;;;;4986761;28;20080;-65
2022/09/16 09:49:30;;;;;;;0.50;0.50;;;20.60;99.90;;;;;;4986684;28;20095;-66
2022/09/16 09:52:00;;;;;;;0.57;0.57;;;20.40;99.90;;;;;;4987117;28;20084;-67
2022/09/16 09:54:28;;;;;;;1.48;0.93;;;20.50;99.90;;;;;;4987057;28;20037;-67
2022/09/16 09:57:02;;;;;;;1.40;1.25;;;20.50;99.90;;;;;;4987444;28;20165;-65
2022/09/16 09:59:38;;;;;;;0.80;0.80;;;20.60;99.90;;;;;;4986304;28;20030;-67
2022/09/16 10:02:14;;;;;;;0.52;0.52;;;20.80;99.90;;;;;;4987337;28;20034;-67
2022/09/16 10:04:40;;;;;;;0.50;0.50;;;20.90;99.90;;;;;;4986984;28;20049;-66
2022/09/16 10:07:07;;;;;;;0.63;0.63;;;21.00;99.90;;;;;;4984756;28;20034;-65
2022/09/16 10:09:34;;;;;;;1.65;1.02;;;21.00;99.90;;;;;;4986986;28;20034;-65
2022/09/16 10:12:00;;;;;;;0.38;0.35;;;21.00;99.90;;;;;;4986315;28;20378;-65
2022/09/16 10:14:31;;;;;;;0.52;0.50;;;21.20;99.90;;;;;;4978935;28;20019;-70
2022/09/16 10:17:01;;;;;;;0.93;0.70;;;21.50;99.90;;;;;;4979964;28;20386;-71
2022/09/16 10:19:29;;;;;;;0.70;0.70;;;21.50;99.90;;;;;;4975950;28;20543;-69
2022/09/16 10:22:15;;;;;;;0.40;0.40;;;21.60;99.90;;;;;;4977536;28;20383;-70
2022/09/16 10:24:42;;;;;;;0.60;0.60;;;21.70;99.90;;;;;;4984460;28;20030;-70
2022/09/16 10:27:24;;;;;;;0.50;0.50;;;21.90;99.90;;;;;;4981627;28;20050;-69
2022/09/16 10:30:22;;;;;;;1.00;1.00;;;22.10;99.90;;;;;;4973675;28;20038;-69
2022/09/16 10:32:49;;;;;;;0.30;0.30;;;22.40;99.90;;;;;;5034288;28;20046;-70
2022/09/16 10:35:24;;;;;;;0.73;0.73;;;22.60;99.90;;;;;;4981383;28;20126;-71
2022/09/16 10:38:12;;;;;;;0.40;0.40;;;22.60;99.90;;;;;;4976676;28;20035;-70
2022/09/16 10:40:38;;;;;;;2.17;1.30;;;22.60;99.90;;;;;;4978903;28;20038;-71
2022/09/16 10:43:12;;;;;;;0.50;0.50;;;22.80;99.90;;;;;;4972845;28;20049;-72
2022/09/16 10:45:48;;;;;;;0.85;0.75;;;22.80;99.90;;;;;;4971112;28;20498;-70
2022/09/16 10:48:18;;;;;;;0.55;0.55;;;22.40;99.90;;;;;;5008896;28;20141;-70
2022/09/16 10:50:57;;;;;;;1.20;1.02;;;22.10;99.90;;;;;;4984479;28;20031;-70
2022/09/16 10:53:28;;;;;;;1.27;1.20;;;21.60;99.90;;;;;;4975000;28;20034;-70
2022/09/16 10:56:03;;;;;;;0.40;0.40;;;21.20;99.90;;;;;;4978712;28;20108;-71
2022/09/16 10:58:29;;;;;;;0.88;0.52;;;21.10;99.90;;;;;;4980055;28;20049;-66
2022/09/16 11:00:54;;;;;;;0.80;0.80;;;20.80;99.90;;;;;;4979106;28;20039;-68
2022/09/16 11:04:01;;;;;;;0.53;0.53;;;20.70;99.90;;;;;;4988553;28;20088;-68
2022/09/16 11:06:33;;;;;;;1.00;0.95;;;20.80;99.90;;;;;;4973274;28;20031;-67
2022/09/16 11:09:04;;;;;;;0.70;0.70;;;21.30;99.90;;;;;;4977003;28;20034;-65
2022/09/16 11:11:57;;;;;;;0.82;0.82;;;21.30;99.90;;;;;;4974110;28;20035;-66
2022/09/16 11:14:58;;;;;;;0.68;0.65;;;21.20;99.90;;;;;;4973721;28;20031;-65
2022/09/16 11:17:42;;;;;;;0.30;0.30;;;21.00;99.90;;;;;;4974318;28;20135;-64
2022/09/16 11:20:25;;;;;;;0.85;0.85;;;20.80;99.90;;;;;;4975413;28;20031;-65
2022/09/16 11:22:57;;;;;;;1.00;0.60;;;20.60;99.90;;;;;;4974307;28;20049;-65
2022/09/16 11:25:37;;;;;;;1.58;1.48;;;20.50;99.90;;;;;;4973413;28;20042;-66
2022/09/16 11:28:11;;;;;;;0.50;0.50;;;20.30;99.90;;;;;;4974242;28;20031;-66
2022/09/16 11:30:54;;;;;;;0.40;0.40;;;20.40;99.90;;;;;;4989994;28;20038;-65
2022/09/16 11:33:37;;;;;;;0.30;0.30;;;20.60;99.90;;;;;;4974824;28;20039;-67
2022/09/16 11:36:19;;;;;;;0.60;0.60;;;20.60;99.90;;;;;;4975137;28;20030;-65
2022/09/16 11:39:02;;;;;;;0.43;0.43;;;20.50;99.90;;;;;;4977411;28;20117;-67
2022/09/16 11:42:13;;;;;;;0.85;0.77;;;20.50;99.90;;;;;;4974819;28;20030;-66
2022/09/16 11:44:45;;;;;;;0.73;0.73;;;20.40;99.90;;;;;;5012543;28;20050;-65
2022/09/16 11:47:32;;;;;;;0.52;0.52;;;20.30;99.90;;;;;;4973450;28;20031;-66
2022/09/16 11:50:32;;;;;;;0.30;0.30;;;20.30;99.90;;;;;;4980806;28;20067;-67
2022/09/16 11:53:06;;;;;;;0.47;0.47;;;20.50;99.90;;;;;;4985499;28;20038;-66
2022/09/16 11:55:34;;;;;;;0.90;0.90;;;20.50;99.90;;;;;;4972621;28;20031;-64
2022/09/16 11:58:21;;;;;;;1.27;0.88;;;20.50;99.90;;;;;;4975362;28;20043;-66
2022/09/16 12:00:50;;;;;;;0.68;0.68;;;20.50;99.90;;;;;;4971533;28;20524;-65
2022/09/16 12:03:24;;;;;;;0.57;0.52;;;20.50;99.90;;;;;;4979754;28;20043;-66
2022/09/16 12:06:03;;;;;;;0.40;0.40;;;20.40;99.90;;;;;;4978551;28;20023;-68
2022/09/16 12:08:33;;;;;;;0.20;0.20;;;20.30;99.90;;;;;;4982525;28;20199;-64
2022/09/16 12:11:20;;;;;;;0.35;0.32;;;20.30;99.90;;;;;;4969295;28;20490;-65
2022/09/16 12:13:52;;;;;;;1.52;1.38;;;20.20;99.90;;;;;;4975050;28;20603;-68
2022/09/16 12:16:37;;;;;;;1.40;1.23;;;20.20;99.90;;;;;;4973202;28;20668;-67
2022/09/16 12:19:10;;;;;;;1.13;1.02;;;20.10;99.90;;;;;;4983956;28;20149;-68
2022/09/16 12:21:47;;;;;;;0.30;0.30;;;20.10;99.90;;;;;;4975556;28;20091;-68
2022/09/16 12:24:16;;;;;;;;;;;20.20;99.90;;;;;;4972626;28;20057;-67
2022/09/16 12:26:49;;;;;;;0.68;0.68;;;20.20;99.90;;;;;;4972988;28;20337;-66
2022/09/16 12:29:20;;;;;;;0.60;0.60;;;20.20;99.90;;;;;;4972961;28;20031;-67
2022/09/16 12:31:53;;;;;;;0.40;0.40;;;20.20;99.90;;;;;;4974988;28;20429;-68
2022/09/16 12:34:28;;;;;;;0.70;0.70;;;20.20;99.90;;;;;;4978915;28;20102;-68
2022/09/16 12:37:09;;;;;;;0.57;0.57;;;20.20;99.90;;;;;;4985423;28;20037;-67
2022/09/16 12:39:34;;;;;;;0.20;0.20;;;20.10;99.90;;;;;;4978246;28;20035;-66
2022/09/16 12:42:37;;;;;;;0.40;0.40;;;20.00;99.90;;;;;;4976388;28;20093;-67
2022/09/16 12:45:30;;;;;;;0.20;0.20;;;20.10;99.90;;;;;;4966824;28;20054;-67
2022/09/16 12:48:04;;;;;;;0.80;0.80;;;20.10;99.90;;;;;;4965392;28;20944;-68
2022/09/16 12:50:55;;;;;;;0.90;0.90;;;20.20;99.90;;;;;;4967791;28;20034;-66
2022/09/16 12:53:27;;;;;;;0.40;0.40;;;20.20;99.90;;;;;;4970557;28;20026;-67
2022/09/16 12:56:07;;;;;;;1.15;0.90;;;20.20;99.90;;;;;;4971523;28;20042;-66
2022/09/16 12:58:53;;;;;;;0.40;0.40;;;20.20;99.90;;;;;;4973802;28;20033;-67
2022/09/16 13:01:28;;;;;;;24.65;1.35;;;20.10;99.90;;;;;;4974292;28;20069;-67
2022/09/16 13:04:08;;;;;;;0.45;0.45;;;20.10;99.90;;;;;;4977532;28;20041;-68
2022/09/16 13:06:38;;;;;;;0.85;0.70;;;20.00;99.90;;;;;;4976432;28;20057;-67
2022/09/16 13:09:23;;;;;;;0.50;0.50;;;20.00;99.90;;;;;;4981221;28;20038;-68
2022/09/16 13:11:55;;;;;;;0.65;0.65;;;19.90;99.90;;;;;;4975500;28;20387;-63
2022/09/16 13:14:32;;;;;;;0.82;0.68;;;19.90;99.90;;;;;;4971665;28;20042;-64
2022/09/16 13:16:59;;;;;;;0.30;0.30;;;19.90;99.90;;;;;;4983899;28;20039;-65
2022/09/16 13:19:48;;;;;;;0.68;0.68;;;19.90;99.90;;;;;;4975821;28;20080;-66